createdAt,value
2018-05-26T00:01:02.237Z,14.16
2018-05-26T00:03:29.741Z,14.84
2018-05-26T00:05:58.054Z,14.22
2018-05-26T00:08:25.552Z,13.70
2018-05-26T00:10:53.837Z,12.98
2018-05-26T00:13:21.353Z,13.80
2018-05-26T00:15:49.635Z,14.30
2018-05-26T00:18:17.168Z,15.00
2018-05-26T00:20:45.425Z,15.22
2018-05-26T00:23:13.724Z,15.24
2018-05-26T00:25:42.974Z,14.88
2018-05-26T00:28:10.517Z,15.76
2018-05-26T00:30:38.813Z,13.90
2018-05-26T00:33:06.326Z,14.14
2018-05-26T00:35:35.646Z,12.56
2018-05-26T00:38:04.526Z,13.36
2018-05-26T00:40:32.849Z,13.20
2018-05-26T00:43:01.109Z,12.94
2018-05-26T00:45:28.667Z,13.60
2018-05-26T00:47:56.929Z,13.42
2018-05-26T00:50:25.235Z,13.38
2018-05-26T00:52:53.502Z,14.26
2018-05-26T00:55:22.559Z,14.08
2018-05-26T00:57:50.828Z,15.06
2018-05-26T01:00:19.122Z,15.46
2018-05-26T01:02:46.645Z,16.00
2018-05-26T01:05:14.154Z,14.06
2018-05-26T01:07:42.463Z,14.32
2018-05-26T01:10:10.729Z,14.52
2018-05-26T01:12:38.264Z,14.22
2018-05-26T01:15:06.561Z,14.18
2018-05-26T01:17:35.186Z,13.42
2018-05-26T01:20:04.725Z,14.80
2018-05-26T01:22:32.327Z,14.78
2018-05-26T01:25:00.608Z,14.46
2018-05-26T01:27:28.900Z,14.68
2018-05-26T01:29:57.162Z,16.02
2018-05-26T01:32:24.704Z,15.50
2018-05-26T01:34:52.202Z,15.28
2018-05-26T01:37:19.737Z,16.76
2018-05-26T01:39:48.015Z,18.34
2018-05-26T01:42:15.549Z,17.42
2018-05-26T01:44:43.823Z,16.96
2018-05-26T01:47:11.358Z,16.50
2018-05-26T01:49:39.968Z,16.36
2018-05-26T01:52:07.493Z,16.24
2018-05-26T01:54:35.006Z,17.60
2018-05-26T01:57:05.135Z,17.32
2018-05-26T01:59:35.406Z,17.42
2018-05-26T02:02:05.630Z,15.54
2018-05-26T02:04:34.364Z,18.38
2018-05-26T02:07:02.267Z,16.64
2018-05-26T02:09:30.549Z,18.62
2018-05-26T02:11:58.089Z,18.74
2018-05-26T02:14:25.590Z,19.20
2018-05-26T02:16:53.889Z,18.08
2018-05-26T02:19:22.158Z,18.82
2018-05-26T02:21:49.701Z,18.18
2018-05-26T02:24:17.965Z,18.44
2018-05-26T02:26:46.221Z,17.44
2018-05-26T02:29:14.518Z,18.90
2018-05-26T02:31:42.815Z,18.38
2018-05-26T02:34:11.085Z,19.20
2018-05-26T02:36:39.410Z,17.94
2018-05-26T02:39:07.675Z,17.52
2018-05-26T02:41:35.969Z,19.20
2018-05-26T02:44:04.554Z,17.74
2018-05-26T02:46:39.181Z,20.65
2018-05-26T02:49:07.483Z,17.82
2018-05-26T02:51:35.769Z,18.36
2018-05-26T02:54:05.262Z,15.74
2018-05-26T02:56:34.864Z,17.40
2018-05-26T02:59:04.409Z,15.78
2018-05-26T03:01:32.744Z,17.36
2018-05-26T03:04:00.506Z,18.26
2018-05-26T03:06:34.449Z,17.20
2018-05-26T03:09:08.758Z,20.62
2018-05-26T03:11:42.659Z,20.46
2018-05-26T03:14:16.589Z,17.62
2018-05-26T03:16:45.309Z,18.60
2018-05-26T03:19:13.604Z,18.48
2018-05-26T03:21:41.896Z,18.38
2018-05-26T03:24:10.212Z,20.50
2018-05-26T03:26:38.473Z,19.36
2018-05-26T03:29:06.773Z,19.70
2018-05-26T03:31:35.033Z,19.74
2018-05-26T03:34:04.690Z,21.28
2018-05-26T03:36:34.960Z,20.82
2018-05-26T03:39:04.442Z,21.18
2018-05-26T03:41:32.777Z,22.38
2018-05-26T03:44:01.033Z,20.90
2018-05-26T03:46:29.327Z,23.68
2018-05-26T03:48:57.601Z,22.88
2018-05-26T03:51:25.896Z,24.68
2018-05-26T03:53:55.115Z,22.34
2018-05-26T03:56:35.098Z,24.16
2018-05-26T03:59:15.322Z,24.16
2018-05-26T04:01:43.631Z,23.00
2018-05-26T04:04:11.917Z,21.14
2018-05-26T04:06:40.178Z,21.84
2018-05-26T04:09:08.468Z,21.10
2018-05-26T04:11:36.769Z,21.86
2018-05-26T04:14:06.007Z,25.26
2018-05-26T04:16:35.512Z,22.16
2018-05-26T04:19:05.164Z,22.06
2018-05-26T04:21:35.337Z,23.70
2018-05-26T04:24:06.816Z,25.16
2018-05-26T04:26:35.117Z,24.56
2018-05-26T04:29:04.110Z,25.18
2018-05-26T04:31:33.689Z,25.18
2018-05-26T04:34:02.398Z,25.18
2018-05-26T04:36:30.664Z,27.38
2018-05-26T04:38:58.953Z,26.24
2018-05-26T04:41:27.223Z,24.50
2018-05-26T04:43:55.526Z,26.14
2018-05-26T04:46:23.795Z,23.98
2018-05-26T04:48:52.101Z,23.24
2018-05-26T04:51:20.379Z,22.80
2018-05-26T04:53:48.673Z,24.12
2018-05-26T04:56:17.081Z,23.42
2018-05-26T04:58:45.345Z,20.64
2018-05-26T05:01:13.664Z,23.02
2018-05-26T05:03:41.938Z,24.44
2018-05-26T05:06:13.861Z,23.30
2018-05-26T05:08:42.222Z,24.02
2018-05-26T05:11:10.500Z,23.88
2018-05-26T05:13:38.802Z,23.88
2018-05-26T05:16:07.070Z,22.12
2018-05-26T05:18:35.368Z,23.02
2018-05-26T05:21:05.800Z,23.04
2018-05-26T05:23:35.209Z,27.80
2018-05-26T05:26:05.493Z,23.38
2018-05-26T05:28:33.796Z,24.96
2018-05-26T05:31:03.162Z,23.34
2018-05-26T05:33:32.475Z,24.14
2018-05-26T05:36:00.787Z,23.70
2018-05-26T05:38:29.214Z,24.06
2018-05-26T05:40:57.482Z,24.74
2018-05-26T05:43:25.754Z,25.94
2018-05-26T05:45:54.074Z,23.44
2018-05-26T05:48:22.444Z,25.60
2018-05-26T05:50:50.761Z,25.44
2018-05-26T05:53:19.096Z,23.26
2018-05-26T05:55:46.627Z,23.96
2018-05-26T05:58:14.892Z,24.92
2018-05-26T06:00:43.189Z,22.76
2018-05-26T06:03:11.460Z,24.62
2018-05-26T06:05:39.733Z,23.70
2018-05-26T06:08:08.029Z,22.50
2018-05-26T06:10:36.295Z,22.46
2018-05-26T06:13:04.473Z,22.46
2018-05-26T06:15:33.544Z,22.06
2018-05-26T06:18:02.459Z,19.12
2018-05-26T06:20:30.731Z,19.14
2018-05-26T06:22:58.994Z,19.70
2018-05-26T06:25:27.294Z,19.34
2018-05-26T06:27:55.609Z,17.40
2018-05-26T06:30:23.885Z,16.46
2018-05-26T06:32:52.180Z,15.96
2018-05-26T06:35:20.477Z,17.18
2018-05-26T06:37:48.742Z,15.04
2018-05-26T06:40:17.769Z,13.84
2018-05-26T06:42:46.052Z,15.16
2018-05-26T06:45:13.563Z,13.28
2018-05-26T06:47:41.864Z,13.30
2018-05-26T06:50:10.165Z,11.88
2018-05-26T06:52:37.701Z,11.94
2018-05-26T06:55:05.977Z,12.40
2018-05-26T06:57:35.376Z,13.30
2018-05-26T07:00:04.858Z,11.30
2018-05-26T07:02:34.610Z,13.06
2018-05-26T07:05:02.903Z,12.32
2018-05-26T07:07:31.204Z,12.98
2018-05-26T07:09:59.506Z,10.48
2018-05-26T07:12:27.814Z,11.74
2018-05-26T07:14:56.117Z,10.78
2018-05-26T07:17:23.657Z,9.76
2018-05-26T07:19:51.928Z,10.26
2018-05-26T07:22:19.452Z,9.58
2018-05-26T07:24:47.760Z,10.24
2018-05-26T07:27:16.018Z,10.02
2018-05-26T07:29:44.309Z,11.48
2018-05-26T07:32:12.572Z,10.66
2018-05-26T07:34:40.878Z,10.30
2018-05-26T07:37:09.184Z,11.34
2018-05-26T07:39:37.446Z,10.66
2018-05-26T07:42:06.330Z,10.24
2018-05-26T07:44:35.613Z,9.90
2018-05-26T07:47:05.478Z,10.10
2018-05-26T07:49:34.872Z,8.02
2018-05-26T07:52:03.907Z,8.14
2018-05-26T07:54:33.356Z,9.40
2018-05-26T07:57:01.629Z,7.94
2018-05-26T07:59:29.907Z,8.32
2018-05-26T08:01:58.221Z,8.42
2018-05-26T08:04:26.523Z,8.10
2018-05-26T08:06:54.829Z,8.04
2018-05-26T08:09:23.114Z,8.10
2018-05-26T08:11:51.379Z,9.30
2018-05-26T08:14:19.676Z,7.86
2018-05-26T08:16:47.975Z,7.96
2018-05-26T08:19:16.274Z,8.32
2018-05-26T08:21:44.567Z,7.82
2018-05-26T08:24:13.763Z,7.78
2018-05-26T08:26:42.044Z,7.66
2018-05-26T08:29:11.058Z,8.22
2018-05-26T08:31:39.345Z,7.52
2018-05-26T08:34:07.607Z,8.74
2018-05-26T08:36:39.310Z,8.30
2018-05-26T08:39:07.607Z,8.46
2018-05-26T08:41:36.357Z,8.66
2018-05-26T08:44:05.566Z,8.22
2018-05-26T08:46:35.506Z,10.26
2018-05-26T08:49:04.932Z,7.84
2018-05-26T08:51:35.170Z,7.00
2018-05-26T08:54:05.765Z,6.46
2018-05-26T08:56:34.034Z,6.82
2018-05-26T08:59:03.304Z,5.84
2018-05-26T09:01:31.605Z,6.04
2018-05-26T09:04:02.866Z,6.24
2018-05-26T09:06:31.253Z,5.88
2018-05-26T09:08:59.458Z,6.62
2018-05-26T09:11:27.722Z,7.08
2018-05-26T09:13:56.010Z,6.70
2018-05-26T09:16:24.269Z,6.88
2018-05-26T09:18:52.606Z,6.68
2018-05-26T09:21:20.873Z,6.32
2018-05-26T09:23:49.182Z,6.56
2018-05-26T09:26:17.447Z,7.14
2018-05-26T09:28:45.762Z,7.08
2018-05-26T09:31:14.316Z,6.12
2018-05-26T09:33:42.573Z,6.44
2018-05-26T09:36:10.871Z,6.38
2018-05-26T09:38:39.141Z,5.88
2018-05-26T09:41:07.423Z,6.22
2018-05-26T09:43:37.007Z,6.40
2018-05-26T09:46:06.684Z,5.98
2018-05-26T09:48:35.010Z,6.02
2018-05-26T09:51:04.749Z,6.20
2018-05-26T09:53:33.077Z,5.52
2018-05-26T09:56:01.470Z,5.10
2018-05-26T09:58:29.675Z,5.66
2018-05-26T10:00:57.947Z,5.62
2018-05-26T10:03:26.260Z,6.16
2018-05-26T10:05:54.539Z,5.64
2018-05-26T10:08:22.803Z,6.10
2018-05-26T10:10:51.090Z,6.06
2018-05-26T10:13:18.585Z,6.78
2018-05-26T10:15:46.881Z,5.80
2018-05-26T10:18:15.165Z,6.46
2018-05-26T10:20:43.475Z,6.30
2018-05-26T10:23:11.735Z,6.80
2018-05-26T10:25:40.033Z,6.56
2018-05-26T10:28:07.558Z,5.64
2018-05-26T10:30:36.340Z,7.08
2018-05-26T10:33:04.813Z,5.66
2018-05-26T10:35:33.171Z,6.28
2018-05-26T10:38:01.439Z,5.56
2018-05-26T10:40:29.711Z,6.36
2018-05-26T10:42:57.997Z,5.84
2018-05-26T10:45:38.127Z,5.90
2018-05-26T10:48:06.398Z,6.48
2018-05-26T10:50:35.658Z,6.68
2018-05-26T10:53:05.539Z,6.76
2018-05-26T10:55:35.278Z,6.52
2018-05-26T10:58:05.749Z,6.48
2018-05-26T11:00:35.085Z,6.68
2018-05-26T11:03:05.678Z,6.36
2018-05-26T11:05:34.853Z,6.80
2018-05-26T11:08:06.327Z,6.08
2018-05-26T11:10:35.606Z,6.50
2018-05-26T11:13:04.867Z,7.98
2018-05-26T11:15:33.936Z,6.78
2018-05-26T11:18:04.330Z,6.50
2018-05-26T11:20:33.314Z,5.82
2018-05-26T11:23:01.579Z,6.20
2018-05-26T11:25:29.887Z,6.78
2018-05-26T11:27:58.152Z,6.02
2018-05-26T11:30:26.486Z,5.84
2018-05-26T11:33:01.150Z,5.52
2018-05-26T11:35:29.425Z,6.22
2018-05-26T11:38:01.455Z,5.78
2018-05-26T11:40:29.717Z,5.68
2018-05-26T11:42:57.969Z,6.10
2018-05-26T11:45:26.249Z,5.98
2018-05-26T11:48:01.486Z,5.80
2018-05-26T11:50:29.798Z,6.78
2018-05-26T11:52:59.011Z,6.44
2018-05-26T11:55:27.269Z,6.24
2018-05-26T11:58:05.653Z,6.56
2018-05-26T12:00:34.778Z,6.06
2018-05-26T12:03:03.032Z,6.50
2018-05-26T12:05:31.335Z,5.94
2018-05-26T12:08:03.075Z,5.22
2018-05-26T12:10:31.450Z,6.92
2018-05-26T12:13:00.751Z,6.50
2018-05-26T12:15:29.059Z,7.60
2018-05-26T12:17:57.362Z,6.18
2018-05-26T12:20:25.800Z,5.88
2018-05-26T12:22:55.066Z,6.38
2018-05-26T12:25:23.369Z,6.94
2018-05-26T12:27:51.644Z,6.94
2018-05-26T12:30:23.448Z,6.90
2018-05-26T12:32:51.721Z,6.70
2018-05-26T12:35:22.013Z,6.38
2018-05-26T12:37:50.273Z,7.12
2018-05-26T12:40:19.506Z,5.92
2018-05-26T12:42:47.811Z,6.10
2018-05-26T12:45:16.148Z,6.64
2018-05-26T12:47:45.375Z,6.42
2018-05-26T12:50:13.665Z,5.94
2018-05-26T12:52:41.961Z,6.14
2018-05-26T12:55:10.221Z,6.48
2018-05-26T12:57:45.904Z,6.36
2018-05-26T13:00:14.198Z,6.52
2018-05-26T13:02:43.474Z,5.72
2018-05-26T13:05:11.773Z,6.70
2018-05-26T13:07:40.071Z,6.36
2018-05-26T13:10:08.334Z,5.60
2018-05-26T13:12:39.659Z,5.84
2018-05-26T13:15:07.927Z,5.84
2018-05-26T13:17:36.238Z,5.82
2018-05-26T13:20:05.818Z,5.40
2018-05-26T13:22:37.746Z,6.38
2018-05-26T13:25:06.016Z,6.30
2018-05-26T13:27:35.533Z,6.70
2018-05-26T13:30:06.229Z,7.74
2018-05-26T13:32:38.096Z,7.72
2018-05-26T13:35:06.368Z,8.02
2018-05-26T13:37:40.897Z,7.68
2018-05-26T13:40:09.993Z,6.50
2018-05-26T13:42:38.301Z,7.24
2018-05-26T13:45:06.558Z,6.42
2018-05-26T13:47:46.362Z,6.00
2018-05-26T13:50:14.752Z,6.38
2018-05-26T13:52:48.928Z,6.38
2018-05-26T13:55:17.278Z,6.62
2018-05-26T13:57:45.713Z,5.60
2018-05-26T14:00:14.005Z,6.36
2018-05-26T14:02:42.273Z,5.98
2018-05-26T14:05:10.606Z,5.60
2018-05-26T14:07:38.861Z,6.08
2018-05-26T14:10:07.178Z,6.24
2018-05-26T14:12:35.239Z,5.58
2018-05-26T14:15:04.422Z,6.32
2018-05-26T14:17:33.446Z,5.82
2018-05-26T14:20:01.739Z,5.80
2018-05-26T14:22:30.017Z,5.80
2018-05-26T14:24:58.313Z,6.20
2018-05-26T14:27:26.610Z,5.66
2018-05-26T14:29:54.917Z,6.32
2018-05-26T14:32:23.209Z,6.08
2018-05-26T14:34:51.485Z,5.78
2018-05-26T14:37:19.789Z,6.02
2018-05-26T14:39:48.108Z,5.74
2018-05-26T14:42:16.377Z,6.62
2018-05-26T14:44:44.636Z,5.80
2018-05-26T14:47:12.931Z,6.24
2018-05-26T14:49:41.190Z,6.46
2018-05-26T14:52:09.503Z,6.16
2018-05-26T14:54:37.772Z,6.82
2018-05-26T14:57:06.101Z,6.90
2018-05-26T14:59:35.599Z,6.50
2018-05-26T15:02:05.538Z,7.18
2018-05-26T15:04:35.358Z,6.86
2018-05-26T15:07:04.634Z,7.52
2018-05-26T15:09:33.937Z,7.06
2018-05-26T15:12:02.237Z,6.90
2018-05-26T15:14:36.916Z,7.94
2018-05-26T15:17:08.243Z,6.66
2018-05-26T15:19:36.545Z,7.38
2018-05-26T15:22:04.850Z,7.22
2018-05-26T15:24:33.123Z,7.70
2018-05-26T15:27:01.439Z,8.12
2018-05-26T15:29:29.737Z,7.72
2018-05-26T15:31:58.030Z,7.78
2018-05-26T15:34:26.327Z,7.24
2018-05-26T15:36:54.603Z,7.88
2018-05-26T15:39:22.898Z,7.64
2018-05-26T15:41:51.153Z,6.54
2018-05-26T15:44:19.423Z,7.58
2018-05-26T15:46:47.721Z,7.62
2018-05-26T15:49:15.977Z,7.46
2018-05-26T15:51:44.262Z,7.06
2018-05-26T15:54:12.534Z,7.70
2018-05-26T15:56:40.828Z,7.62
2018-05-26T15:59:09.128Z,8.16
2018-05-26T16:01:37.386Z,6.50
2018-05-26T16:04:09.317Z,7.12
2018-05-26T16:06:37.610Z,7.76
2018-05-26T16:09:12.017Z,6.84
2018-05-26T16:11:40.421Z,7.30
2018-05-26T16:14:08.685Z,7.40
2018-05-26T16:16:36.185Z,7.84
2018-05-26T16:19:06.178Z,7.32
2018-05-26T16:21:35.726Z,7.52
2018-05-26T16:24:06.050Z,6.82
2018-05-26T16:26:35.272Z,8.24
2018-05-26T16:29:04.729Z,7.24
2018-05-26T16:31:32.996Z,8.74
2018-05-26T16:34:01.271Z,7.12
2018-05-26T16:36:29.561Z,7.10
2018-05-26T16:38:57.830Z,7.64
2018-05-26T16:41:26.125Z,10.72
2018-05-26T16:43:54.431Z,10.16
2018-05-26T16:46:22.764Z,8.34
2018-05-26T16:48:51.061Z,8.86
2018-05-26T16:51:19.345Z,8.70
2018-05-26T16:53:47.646Z,8.32
2018-05-26T16:56:15.941Z,6.90
2018-05-26T16:58:44.245Z,7.68
2018-05-26T17:01:12.529Z,7.42
2018-05-26T17:03:40.782Z,6.50
2018-05-26T17:06:09.081Z,8.32
2018-05-26T17:08:37.364Z,9.64
2018-05-26T17:11:06.650Z,8.04
2018-05-26T17:13:34.953Z,7.20
2018-05-26T17:16:03.251Z,7.72
2018-05-26T17:18:31.510Z,7.04
2018-05-26T17:21:00.957Z,7.33
2018-05-26T17:23:29.244Z,7.00
2018-05-26T17:25:59.613Z,6.06
2018-05-26T17:28:27.873Z,7.08
2018-05-26T17:30:56.217Z,6.80
2018-05-26T17:33:24.498Z,7.16
2018-05-26T17:35:55.980Z,7.82
2018-05-26T17:38:24.277Z,7.48
2018-05-26T17:40:52.546Z,8.50
2018-05-26T17:43:20.872Z,7.28
2018-05-26T17:45:49.163Z,7.46
2018-05-26T17:48:17.440Z,7.04
2018-05-26T17:50:45.745Z,7.50
2018-05-26T17:53:14.031Z,7.58
2018-05-26T17:55:42.292Z,7.04
2018-05-26T17:58:10.590Z,6.52
2018-05-26T18:00:38.896Z,6.68
2018-05-26T18:03:07.191Z,8.22
2018-05-26T18:05:36.109Z,7.10
2018-05-26T18:08:05.914Z,6.72
2018-05-26T18:10:35.254Z,6.22
2018-05-26T18:13:05.827Z,6.56
2018-05-26T18:15:35.808Z,6.78
2018-05-26T18:18:05.435Z,6.04
2018-05-26T18:20:35.768Z,6.92
2018-05-26T18:23:06.221Z,6.46
2018-05-26T18:25:35.818Z,6.52
2018-05-26T18:28:06.237Z,5.74
2018-05-26T18:30:35.828Z,7.10
2018-05-26T18:33:05.254Z,5.92
2018-05-26T18:35:34.869Z,6.54
2018-05-26T18:38:03.164Z,6.48
2018-05-26T18:40:31.472Z,6.68
2018-05-26T18:42:59.013Z,6.08
2018-05-26T18:45:27.270Z,6.14
2018-05-26T18:47:55.568Z,6.04
2018-05-26T18:50:23.870Z,6.66
2018-05-26T18:52:52.179Z,6.94
2018-05-26T18:55:20.447Z,6.66
2018-05-26T18:57:47.982Z,6.44
2018-05-26T19:00:16.250Z,6.60
2018-05-26T19:02:44.568Z,6.34
2018-05-26T19:05:12.845Z,6.36
2018-05-26T19:07:41.145Z,6.14
2018-05-26T19:10:09.433Z,6.10
2018-05-26T19:12:37.725Z,6.08
2018-05-26T19:15:06.034Z,6.18
2018-05-26T19:17:35.626Z,7.06
2018-05-26T19:20:06.265Z,7.06
2018-05-26T19:22:35.409Z,6.28
2018-05-26T19:25:06.325Z,6.52
2018-05-26T19:27:35.588Z,5.90
2018-05-26T19:30:06.566Z,7.00
2018-05-26T19:32:35.864Z,6.22
2018-05-26T19:35:05.761Z,7.08
2018-05-26T19:37:35.766Z,6.14
2018-05-26T19:40:06.344Z,7.16
2018-05-26T19:42:35.839Z,7.86
2018-05-26T19:45:06.654Z,6.42
2018-05-26T19:47:35.038Z,6.76
2018-05-26T19:50:05.973Z,6.50
2018-05-26T19:52:35.207Z,7.10
2018-05-26T19:55:04.757Z,7.72
2018-05-26T19:57:33.033Z,7.52
2018-05-26T20:00:01.336Z,6.98
2018-05-26T20:02:29.613Z,6.66
2018-05-26T20:04:57.904Z,6.66
2018-05-26T20:07:26.205Z,6.50
2018-05-26T20:09:54.473Z,7.40
2018-05-26T20:12:22.769Z,7.32
2018-05-26T20:14:50.272Z,5.90
2018-05-26T20:17:18.595Z,6.84
2018-05-26T20:19:46.874Z,7.28
2018-05-26T20:22:15.192Z,7.32
2018-05-26T20:24:43.468Z,7.26
2018-05-26T20:27:11.733Z,6.58
2018-05-26T20:29:40.068Z,7.10
2018-05-26T20:32:08.337Z,7.44
2018-05-26T20:34:36.908Z,6.76
2018-05-26T20:37:06.233Z,7.46
2018-05-26T20:39:35.626Z,6.88
2018-05-26T20:42:06.113Z,7.36
2018-05-26T20:44:35.385Z,6.52
2018-05-26T20:47:05.637Z,7.30
2018-05-26T20:49:35.950Z,7.12
2018-05-26T20:52:05.343Z,7.48
2018-05-26T20:54:35.492Z,7.34
2018-05-26T20:57:05.565Z,8.16
2018-05-26T20:59:36.371Z,7.56
2018-05-26T21:02:05.640Z,7.66
2018-05-26T21:04:35.943Z,8.18
2018-05-26T21:07:05.800Z,7.40
2018-05-26T21:09:36.403Z,8.04
2018-05-26T21:12:05.865Z,7.72
2018-05-26T21:14:35.253Z,7.66
2018-05-26T21:17:05.689Z,7.78
2018-05-26T21:19:37.849Z,8.04
2018-05-26T21:22:06.113Z,8.18
2018-05-26T21:24:35.465Z,7.30
2018-05-26T21:27:05.216Z,8.72
2018-05-26T21:29:35.540Z,7.76
2018-05-26T21:32:05.762Z,8.54
2018-05-26T21:34:35.594Z,7.18
2018-05-26T21:37:06.062Z,8.56
2018-05-26T21:39:35.381Z,8.90
2018-05-26T21:42:05.609Z,8.42
2018-05-26T21:44:35.189Z,9.26
2018-05-26T21:47:05.727Z,8.78
2018-05-26T21:49:34.681Z,8.90
2018-05-26T21:52:04.023Z,8.90
2018-05-26T21:54:32.692Z,9.16
2018-05-26T21:57:00.981Z,8.02
2018-05-26T21:59:29.258Z,8.44
2018-05-26T22:01:57.569Z,9.40
2018-05-26T22:04:25.861Z,9.76
2018-05-26T22:06:54.121Z,10.16
2018-05-26T22:09:22.416Z,8.90
2018-05-26T22:11:50.706Z,8.94
2018-05-26T22:14:19.904Z,8.86
2018-05-26T22:16:48.162Z,8.86
2018-05-26T22:19:16.457Z,9.48
2018-05-26T22:21:44.737Z,9.26
2018-05-26T22:24:12.997Z,9.24
2018-05-26T22:26:41.290Z,9.46
2018-05-26T22:29:09.545Z,9.58
2018-05-26T22:31:37.850Z,9.16
2018-05-26T22:34:06.115Z,9.78
2018-05-26T22:36:35.222Z,8.88
2018-05-26T22:39:02.750Z,9.52
2018-05-26T22:41:31.012Z,10.86
2018-05-26T22:43:59.321Z,10.20
2018-05-26T22:46:27.671Z,10.86
2018-05-26T22:48:55.973Z,9.30
2018-05-26T22:51:24.247Z,10.40
2018-05-26T22:53:55.497Z,10.16
2018-05-26T22:56:23.773Z,10.68
2018-05-26T22:58:52.073Z,10.24
2018-05-26T23:01:20.382Z,11.28
2018-05-26T23:03:48.660Z,11.68
2018-05-26T23:06:16.930Z,9.96
2018-05-26T23:08:44.462Z,11.18
2018-05-26T23:11:12.721Z,14.12
2018-05-26T23:13:41.010Z,11.26
2018-05-26T23:16:09.276Z,12.40
2018-05-26T23:18:37.566Z,12.26
2018-05-26T23:21:07.241Z,12.24
2018-05-26T23:23:36.845Z,12.52
2018-05-26T23:26:06.108Z,11.16
2018-05-26T23:28:35.914Z,10.86
2018-05-26T23:31:06.406Z,10.32
2018-05-26T23:33:35.759Z,9.86
2018-05-26T23:36:05.240Z,10.52
2018-05-26T23:38:35.448Z,11.10
2018-05-26T23:41:04.997Z,10.38
2018-05-26T23:43:33.253Z,11.06
2018-05-26T23:46:01.630Z,10.90
2018-05-26T23:48:29.965Z,11.02
2018-05-26T23:50:58.250Z,11.08
2018-05-26T23:53:26.520Z,10.26
2018-05-26T23:55:54.818Z,11.52
2018-05-26T23:58:23.097Z,10.64
